createdAt,value
2018-12-18T00:00:37.203Z,22.30
2018-12-18T00:01:37.295Z,21.20
2018-12-18T00:02:37.383Z,25.70
2018-12-18T00:03:39.424Z,22.50
2018-12-18T00:04:37.562Z,23.00
2018-12-18T00:05:37.654Z,22.30
2018-12-18T00:06:37.750Z,25.60
2018-12-18T00:07:37.826Z,23.50
2018-12-18T00:08:37.914Z,20.80
2018-12-18T00:09:38.004Z,20.60
2018-12-18T00:10:38.091Z,23.80
2018-12-18T00:11:38.177Z,26.90
2018-12-18T00:12:38.268Z,22.00
2018-12-18T00:13:38.356Z,22.30
2018-12-18T00:14:39.287Z,21.40
2018-12-18T00:15:38.539Z,25.00
2018-12-18T00:16:38.627Z,22.50
2018-12-18T00:17:38.714Z,21.60
2018-12-18T00:18:38.805Z,22.40
2018-12-18T00:19:38.894Z,22.70
2018-12-18T00:20:38.981Z,20.10
2018-12-18T00:21:39.068Z,20.80
2018-12-18T00:22:39.158Z,23.60
2018-12-18T00:23:39.246Z,22.70
2018-12-18T00:24:39.334Z,21.10
2018-12-18T00:25:39.424Z,19.80
2018-12-18T00:26:39.511Z,21.20
2018-12-18T00:27:39.597Z,22.60
2018-12-18T00:28:39.683Z,22.80
2018-12-18T00:29:39.772Z,23.00
2018-12-18T00:30:39.861Z,20.20
2018-12-18T00:31:39.952Z,22.90
2018-12-18T00:32:40.038Z,22.80
2018-12-18T00:33:45.911Z,22.00
2018-12-18T00:34:40.215Z,21.50
2018-12-18T00:35:40.305Z,22.70
2018-12-18T00:36:40.394Z,22.60
2018-12-18T00:37:40.521Z,19.30
2018-12-18T00:38:40.592Z,20.50
2018-12-18T00:39:40.685Z,22.40
2018-12-18T00:40:40.775Z,22.10
2018-12-18T00:41:40.867Z,20.30
2018-12-18T00:42:40.953Z,21.80
2018-12-18T00:43:41.038Z,22.50
2018-12-18T00:44:41.126Z,22.50
2018-12-18T00:45:41.217Z,21.40
2018-12-18T00:46:41.304Z,22.20
2018-12-18T00:47:41.392Z,21.50
2018-12-18T00:48:41.480Z,21.00
2018-12-18T00:49:41.571Z,23.50
2018-12-18T00:50:41.659Z,25.00
2018-12-18T00:51:41.745Z,22.30
2018-12-18T00:52:41.833Z,23.80
2018-12-18T00:53:41.919Z,22.60
2018-12-18T00:54:42.008Z,23.20
2018-12-18T00:55:42.101Z,22.50
2018-12-18T00:56:42.182Z,22.70
2018-12-18T00:57:42.269Z,21.70
2018-12-18T00:58:42.361Z,24.40
2018-12-18T00:59:42.450Z,23.60
2018-12-18T01:00:42.541Z,20.90
2018-12-18T01:01:42.627Z,24.60
2018-12-18T01:02:42.714Z,23.30
2018-12-18T01:03:42.803Z,23.50
2018-12-18T01:04:42.891Z,23.40
2018-12-18T01:05:42.982Z,23.60
2018-12-18T01:06:43.067Z,23.40
2018-12-18T01:07:43.154Z,23.00
2018-12-18T01:08:43.237Z,24.40
2018-12-18T01:09:43.325Z,21.40
2018-12-18T01:10:43.415Z,23.70
2018-12-18T01:11:43.504Z,23.10
2018-12-18T01:12:43.591Z,22.70
2018-12-18T01:13:43.685Z,24.40
2018-12-18T01:14:43.774Z,20.00
2018-12-18T01:15:43.856Z,22.70
2018-12-18T01:16:43.956Z,25.70
2018-12-18T01:17:44.045Z,22.30
2018-12-18T01:18:44.134Z,24.00
2018-12-18T01:19:44.222Z,23.50
2018-12-18T01:20:44.312Z,22.20
2018-12-18T01:21:44.398Z,23.40
2018-12-18T01:22:44.485Z,23.30
2018-12-18T01:23:44.578Z,24.70
2018-12-18T01:24:44.666Z,23.80
2018-12-18T01:25:44.757Z,22.50
2018-12-18T01:26:44.840Z,22.70
2018-12-18T01:27:44.926Z,24.30
2018-12-18T01:28:45.014Z,22.90
2018-12-18T01:29:45.101Z,23.10
2018-12-18T01:30:45.190Z,24.60
2018-12-18T01:31:45.283Z,23.00
2018-12-18T01:32:45.391Z,21.70
2018-12-18T01:33:45.458Z,19.70
2018-12-18T01:34:45.549Z,22.30
2018-12-18T01:35:45.639Z,23.40
2018-12-18T01:36:45.727Z,23.70
2018-12-18T01:37:45.817Z,22.50
2018-12-18T01:38:45.907Z,22.00
2018-12-18T01:39:45.992Z,22.70
2018-12-18T01:40:46.081Z,24.40
2018-12-18T01:41:46.168Z,21.20
2018-12-18T01:42:46.258Z,24.70
2018-12-18T01:43:46.348Z,20.30
2018-12-18T01:44:46.434Z,21.80
2018-12-18T01:45:46.527Z,19.20
2018-12-18T01:46:46.612Z,22.50
2018-12-18T01:47:46.714Z,19.10
2018-12-18T01:48:46.806Z,22.60
2018-12-18T01:49:46.895Z,22.00
2018-12-18T01:50:46.980Z,22.80
2018-12-18T01:51:47.067Z,21.70
2018-12-18T01:52:47.157Z,21.90
2018-12-18T01:53:47.244Z,19.70
2018-12-18T01:54:47.337Z,20.60
2018-12-18T01:55:47.422Z,20.60
2018-12-18T01:56:47.509Z,22.10
2018-12-18T01:57:47.596Z,24.20
2018-12-18T01:58:47.688Z,22.40
2018-12-18T01:59:47.777Z,21.00
2018-12-18T02:00:47.864Z,22.60
2018-12-18T02:01:47.951Z,20.90
2018-12-18T02:02:48.037Z,22.50
2018-12-18T02:03:48.126Z,22.30
2018-12-18T02:04:48.217Z,21.80
2018-12-18T02:05:48.302Z,23.20
2018-12-18T02:06:48.381Z,24.50
2018-12-18T02:07:48.472Z,25.60
2018-12-18T02:08:48.562Z,25.00
2018-12-18T02:09:48.657Z,21.60
2018-12-18T02:10:48.742Z,21.60
2018-12-18T02:11:48.832Z,23.30
2018-12-18T02:12:48.920Z,20.50
2018-12-18T02:13:49.011Z,21.60
2018-12-18T02:14:49.101Z,22.20
2018-12-18T02:15:49.187Z,20.50
2018-12-18T02:16:49.275Z,21.50
2018-12-18T02:17:49.361Z,20.20
2018-12-18T02:18:49.475Z,21.60
2018-12-18T02:19:49.561Z,21.80
2018-12-18T02:20:49.659Z,20.40
2018-12-18T02:21:49.737Z,20.90
2018-12-18T02:22:49.826Z,20.50
2018-12-18T02:23:49.912Z,22.30
2018-12-18T02:24:50.002Z,18.90
2018-12-18T02:25:50.095Z,18.80
2018-12-18T02:26:50.187Z,20.20
2018-12-18T02:27:50.274Z,19.90
2018-12-18T02:28:50.363Z,19.70
2018-12-18T02:29:50.455Z,22.00
2018-12-18T02:30:50.555Z,22.60
2018-12-18T02:31:50.639Z,19.90
2018-12-18T02:32:50.727Z,17.80
2018-12-18T02:33:50.815Z,19.90
2018-12-18T02:34:50.906Z,20.60
2018-12-18T02:35:50.997Z,22.50
2018-12-18T02:36:51.084Z,19.90
2018-12-18T02:37:51.173Z,20.40
2018-12-18T02:38:51.263Z,18.50
2018-12-18T02:39:51.354Z,19.20
2018-12-18T02:40:51.440Z,18.60
2018-12-18T02:41:51.527Z,21.00
2018-12-18T02:42:51.618Z,19.40
2018-12-18T02:43:51.720Z,24.90
2018-12-18T02:44:51.815Z,20.90
2018-12-18T02:45:51.906Z,20.40
2018-12-18T02:46:51.996Z,19.90
2018-12-18T02:47:52.152Z,21.00
2018-12-18T02:48:52.175Z,20.70
2018-12-18T02:49:52.265Z,22.30
2018-12-18T02:50:52.351Z,23.20
2018-12-18T02:51:52.447Z,19.50
2018-12-18T02:52:52.533Z,22.60
2018-12-18T02:53:52.627Z,21.60
2018-12-18T02:54:52.709Z,19.30
2018-12-18T02:55:52.796Z,21.70
2018-12-18T02:56:52.883Z,24.80
2018-12-18T02:57:52.973Z,23.50
2018-12-18T02:58:53.065Z,23.80
2018-12-18T02:59:53.153Z,24.30
2018-12-18T03:00:53.250Z,22.10
2018-12-18T03:01:53.336Z,23.20
2018-12-18T03:02:53.424Z,24.20
2018-12-18T03:03:53.513Z,20.90
2018-12-18T03:04:53.601Z,21.60
2018-12-18T03:05:53.694Z,23.30
2018-12-18T03:06:53.781Z,22.10
2018-12-18T03:07:53.872Z,20.40
2018-12-18T03:08:53.960Z,21.90
2018-12-18T03:09:54.047Z,21.90
2018-12-18T03:10:54.175Z,23.90
2018-12-18T03:11:54.227Z,19.30
2018-12-18T03:12:54.311Z,22.20
2018-12-18T03:13:54.401Z,19.80
2018-12-18T03:14:54.490Z,20.90
2018-12-18T03:15:54.582Z,19.50
2018-12-18T03:16:54.672Z,19.70
2018-12-18T03:17:54.760Z,22.80
2018-12-18T03:18:54.849Z,20.90
2018-12-18T03:19:54.937Z,21.30
2018-12-18T03:20:55.025Z,21.70
2018-12-18T03:21:55.113Z,19.50
2018-12-18T03:22:55.208Z,20.30
2018-12-18T03:23:55.294Z,21.70
2018-12-18T03:24:55.375Z,26.40
2018-12-18T03:25:55.465Z,20.10
2018-12-18T03:26:55.553Z,19.90
2018-12-18T03:27:55.636Z,22.00
2018-12-18T03:28:55.733Z,23.20
2018-12-18T03:29:55.823Z,22.70
2018-12-18T03:30:57.510Z,22.20
2018-12-18T03:31:56.013Z,21.40
2018-12-18T03:32:56.088Z,20.20
2018-12-18T03:33:56.173Z,19.80
2018-12-18T03:34:56.266Z,20.50
2018-12-18T03:35:56.357Z,20.00
2018-12-18T03:36:56.444Z,20.70
2018-12-18T03:37:56.535Z,20.70
2018-12-18T03:38:56.623Z,21.20
2018-12-18T03:39:56.716Z,19.90
2018-12-18T03:40:56.802Z,22.10
2018-12-18T03:41:56.891Z,20.60
2018-12-18T03:42:56.982Z,20.70
2018-12-18T03:43:57.071Z,20.60
2018-12-18T03:44:57.161Z,20.80
2018-12-18T03:45:57.249Z,19.70
2018-12-18T03:46:57.340Z,19.70
2018-12-18T03:47:57.427Z,20.50
2018-12-18T03:48:57.516Z,19.60
2018-12-18T03:49:57.606Z,20.30
2018-12-18T03:50:57.694Z,18.20
2018-12-18T03:51:57.779Z,19.50
2018-12-18T03:52:57.862Z,19.70
2018-12-18T03:53:57.962Z,19.30
2018-12-18T03:54:58.047Z,21.20
2018-12-18T03:55:58.135Z,20.50
2018-12-18T03:56:58.221Z,19.60
2018-12-18T03:57:58.308Z,20.60
2018-12-18T03:58:58.404Z,21.70
2018-12-18T03:59:58.491Z,17.90
2018-12-18T04:00:58.577Z,19.90
2018-12-18T04:01:58.663Z,19.60
2018-12-18T04:02:58.753Z,20.50
2018-12-18T04:03:58.840Z,23.70
2018-12-18T04:04:58.932Z,19.10
2018-12-18T04:05:59.023Z,17.70
2018-12-18T04:06:59.107Z,17.00
2018-12-18T04:07:59.197Z,17.80
2018-12-18T04:08:59.289Z,18.80
2018-12-18T04:09:59.381Z,17.80
2018-12-18T04:10:59.465Z,19.90
2018-12-18T04:11:59.555Z,18.30
2018-12-18T04:12:59.644Z,17.40
2018-12-18T04:13:59.733Z,18.50
2018-12-18T04:14:59.822Z,18.90
2018-12-18T04:15:59.913Z,18.80
2018-12-18T04:17:00.000Z,17.60
2018-12-18T04:18:00.087Z,18.60
2018-12-18T04:19:00.179Z,18.90
2018-12-18T04:20:00.267Z,16.80
2018-12-18T04:21:00.356Z,18.30
2018-12-18T04:22:00.447Z,15.50
2018-12-18T04:23:00.533Z,16.00
2018-12-18T04:24:00.657Z,17.10
2018-12-18T04:25:00.699Z,17.90
2018-12-18T04:26:00.790Z,18.20
2018-12-18T04:27:00.879Z,20.20
2018-12-18T04:28:00.980Z,18.50
2018-12-18T04:29:01.053Z,20.20
2018-12-18T04:30:01.136Z,19.30
2018-12-18T04:31:01.223Z,19.90
2018-12-18T04:32:01.311Z,23.10
2018-12-18T04:33:01.402Z,21.60
2018-12-18T04:34:01.487Z,24.20
2018-12-18T04:35:01.622Z,26.70
2018-12-18T04:36:01.670Z,22.80
2018-12-18T04:37:01.754Z,25.60
2018-12-18T04:38:01.849Z,25.60
2018-12-18T04:39:01.937Z,28.20
2018-12-18T04:40:02.026Z,26.20
2018-12-18T04:41:02.109Z,25.80
2018-12-18T04:42:02.219Z,27.20
2018-12-18T04:43:02.313Z,25.00
2018-12-18T04:44:02.398Z,23.10
2018-12-18T04:45:02.491Z,24.40
2018-12-18T04:46:02.580Z,24.60
2018-12-18T04:47:02.671Z,24.00
2018-12-18T04:48:02.760Z,23.40
2018-12-18T04:49:02.849Z,23.30
2018-12-18T04:50:02.938Z,22.30
2018-12-18T04:51:03.023Z,22.60
2018-12-18T04:52:03.114Z,24.10
2018-12-18T04:53:03.211Z,23.90
2018-12-18T04:54:03.289Z,24.60
2018-12-18T04:55:03.379Z,22.80
2018-12-18T04:56:03.470Z,20.20
2018-12-18T04:57:03.560Z,23.40
2018-12-18T04:58:03.652Z,22.20
2018-12-18T04:59:03.757Z,21.00
2018-12-18T05:00:03.848Z,19.80
2018-12-18T05:01:03.949Z,20.10
2018-12-18T05:02:04.039Z,20.20
2018-12-18T05:03:04.125Z,20.50
2018-12-18T05:04:04.212Z,21.30
2018-12-18T05:05:04.298Z,22.40
2018-12-18T05:06:04.388Z,21.60
2018-12-18T05:07:04.477Z,21.00
2018-12-18T05:08:04.568Z,18.00
2018-12-18T05:09:04.659Z,19.20
2018-12-18T05:10:04.749Z,20.70
2018-12-18T05:11:04.837Z,20.60
2018-12-18T05:12:04.927Z,20.60
2018-12-18T05:13:05.015Z,20.30
2018-12-18T05:14:05.103Z,21.70
2018-12-18T05:15:06.283Z,19.60
2018-12-18T05:16:05.285Z,20.20
2018-12-18T05:17:05.372Z,18.40
2018-12-18T05:18:05.465Z,18.60
2018-12-18T05:19:05.547Z,17.80
2018-12-18T05:20:05.636Z,20.70
2018-12-18T05:21:05.728Z,18.60
2018-12-18T05:22:05.821Z,21.50
2018-12-18T05:23:05.907Z,19.50
2018-12-18T05:24:06.001Z,18.60
2018-12-18T05:25:06.085Z,17.90
2018-12-18T05:26:06.198Z,17.20
2018-12-18T05:27:06.305Z,18.00
2018-12-18T05:28:06.390Z,18.00
2018-12-18T05:29:06.481Z,18.50
2018-12-18T05:30:06.573Z,24.20
2018-12-18T05:31:06.659Z,15.50
2018-12-18T05:32:06.751Z,16.30
2018-12-18T05:33:06.831Z,17.90
2018-12-18T05:34:06.927Z,16.70
2018-12-18T05:35:07.019Z,20.10
2018-12-18T05:36:07.113Z,19.90
2018-12-18T05:37:07.198Z,19.00
2018-12-18T05:38:07.287Z,22.30
2018-12-18T05:39:07.380Z,29.20
2018-12-18T05:40:07.470Z,22.50
2018-12-18T05:41:07.559Z,19.00
2018-12-18T05:42:07.649Z,19.40
2018-12-18T05:43:07.742Z,20.20
2018-12-18T05:44:07.831Z,20.20
2018-12-18T05:45:07.921Z,19.60
2018-12-18T05:46:08.016Z,20.40
2018-12-18T05:47:08.104Z,19.60
2018-12-18T05:48:08.190Z,18.20
2018-12-18T05:49:08.280Z,16.90
2018-12-18T05:50:08.372Z,20.00
2018-12-18T05:51:08.458Z,20.50
2018-12-18T05:52:08.550Z,22.00
2018-12-18T05:53:08.636Z,19.20
2018-12-18T05:54:08.736Z,21.00
2018-12-18T05:55:08.830Z,22.30
2018-12-18T05:56:08.914Z,21.70
2018-12-18T05:57:09.003Z,20.10
2018-12-18T05:58:09.084Z,16.40
2018-12-18T05:59:09.190Z,19.30
2018-12-18T06:00:09.278Z,20.90
2018-12-18T06:01:09.376Z,19.50
2018-12-18T06:02:09.468Z,19.20
2018-12-18T06:03:09.559Z,19.00
2018-12-18T06:04:09.653Z,20.10
2018-12-18T06:05:09.743Z,19.50
2018-12-18T06:06:09.833Z,21.10
2018-12-18T06:07:09.923Z,19.70
2018-12-18T06:08:10.013Z,17.20
2018-12-18T06:09:10.101Z,16.40
2018-12-18T06:10:10.193Z,16.70
2018-12-18T06:11:10.292Z,18.60
2018-12-18T06:12:10.373Z,16.20
2018-12-18T06:13:10.450Z,16.60
2018-12-18T06:14:10.566Z,16.20
2018-12-18T06:15:10.632Z,16.40
2018-12-18T06:16:10.737Z,16.60
2018-12-18T06:17:10.790Z,16.60
2018-12-18T06:18:10.886Z,18.20
2018-12-18T06:19:10.973Z,19.10
2018-12-18T06:20:11.065Z,19.40
2018-12-18T06:21:11.154Z,20.70
2018-12-18T06:22:11.196Z,18.90
2018-12-18T06:23:11.273Z,23.10
2018-12-18T06:24:11.352Z,21.00
2018-12-18T06:25:11.435Z,23.10
2018-12-18T06:26:11.516Z,22.10
2018-12-18T06:27:11.607Z,20.30
2018-12-18T06:28:11.687Z,21.00
2018-12-18T06:29:11.771Z,17.70
2018-12-18T06:30:11.853Z,17.50
2018-12-18T06:31:11.936Z,20.30
2018-12-18T06:32:12.007Z,21.40
2018-12-18T06:33:12.118Z,20.10
2018-12-18T06:34:12.216Z,21.90
2018-12-18T06:35:12.302Z,20.00
2018-12-18T06:36:12.432Z,20.20
2018-12-18T06:37:12.482Z,18.40
2018-12-18T06:38:12.575Z,19.90
2018-12-18T06:39:12.660Z,17.80
2018-12-18T06:40:12.752Z,19.10
2018-12-18T06:41:12.840Z,20.80
2018-12-18T06:42:12.930Z,21.60
2018-12-18T06:43:13.033Z,20.40
2018-12-18T06:44:13.131Z,20.50
2018-12-18T06:45:13.213Z,18.90
2018-12-18T06:46:13.305Z,20.60
2018-12-18T06:47:13.397Z,21.10
2018-12-18T06:48:13.485Z,18.20
2018-12-18T06:49:13.574Z,18.40
2018-12-18T06:50:13.661Z,21.00
2018-12-18T06:51:13.752Z,18.50
2018-12-18T06:52:20.995Z,18.90
2018-12-18T06:53:13.962Z,18.80
2018-12-18T06:54:14.051Z,18.10
2018-12-18T06:55:14.138Z,19.60
2018-12-18T06:56:14.233Z,19.80
2018-12-18T06:57:14.318Z,21.70
2018-12-18T06:58:14.408Z,19.80
2018-12-18T06:59:14.497Z,20.70
2018-12-18T07:00:14.587Z,18.40
2018-12-18T07:01:14.676Z,21.90
2018-12-18T07:02:14.766Z,19.20
2018-12-18T07:03:14.860Z,20.10
2018-12-18T07:04:14.949Z,22.40
2018-12-18T07:05:16.877Z,18.90
2018-12-18T07:06:15.122Z,17.40
2018-12-18T07:07:15.240Z,18.80
2018-12-18T07:08:15.299Z,18.70
2018-12-18T07:09:15.389Z,20.20
2018-12-18T07:10:15.478Z,20.20
2018-12-18T07:11:15.571Z,18.40
2018-12-18T07:12:15.657Z,19.00
2018-12-18T07:13:15.746Z,17.50
2018-12-18T07:14:15.838Z,18.60
2018-12-18T07:15:15.926Z,17.10
2018-12-18T07:16:16.014Z,15.00
2018-12-18T07:17:16.101Z,17.00
2018-12-18T07:18:16.196Z,16.90
2018-12-18T07:19:16.277Z,18.60
2018-12-18T07:20:16.369Z,17.90
2018-12-18T07:21:16.458Z,19.80
2018-12-18T07:22:16.544Z,19.20
2018-12-18T07:23:16.636Z,20.80
2018-12-18T07:24:16.724Z,18.40
2018-12-18T07:25:16.813Z,16.50
2018-12-18T07:26:16.902Z,16.10
2018-12-18T07:27:16.996Z,17.10
2018-12-18T07:28:17.083Z,17.10
2018-12-18T07:29:17.180Z,16.10
2018-12-18T07:30:17.264Z,17.10
2018-12-18T07:31:17.354Z,17.50
2018-12-18T07:32:17.443Z,18.40
2018-12-18T07:33:17.555Z,19.40
2018-12-18T07:34:17.618Z,17.50
2018-12-18T07:35:23.182Z,18.80
2018-12-18T07:36:17.796Z,19.20
2018-12-18T07:37:17.886Z,22.30
2018-12-18T07:38:17.972Z,21.80
2018-12-18T07:39:18.067Z,19.50
2018-12-18T07:40:18.159Z,16.30
2018-12-18T07:41:18.249Z,16.00
2018-12-18T07:42:18.339Z,18.80
2018-12-18T07:43:18.428Z,20.40
2018-12-18T07:44:18.522Z,20.20
2018-12-18T07:45:18.606Z,19.00
2018-12-18T07:46:18.688Z,23.90
2018-12-18T07:47:18.785Z,21.30
2018-12-18T07:48:18.864Z,20.30
2018-12-18T07:49:18.958Z,21.40
2018-12-18T07:50:19.046Z,20.50
2018-12-18T07:51:19.137Z,18.90
2018-12-18T07:52:19.225Z,17.90
2018-12-18T07:53:19.312Z,16.60
2018-12-18T07:54:19.403Z,16.40
2018-12-18T07:55:19.492Z,21.40
2018-12-18T07:56:19.581Z,18.70
2018-12-18T07:57:19.672Z,23.20
2018-12-18T07:58:19.776Z,24.00
2018-12-18T07:59:19.872Z,20.40
2018-12-18T08:00:19.960Z,21.40
2018-12-18T08:01:20.049Z,22.80
2018-12-18T08:02:20.137Z,19.60
2018-12-18T08:03:20.227Z,20.80
2018-12-18T08:04:21.155Z,22.00
2018-12-18T08:05:20.440Z,19.40
2018-12-18T08:06:20.527Z,20.90
2018-12-18T08:07:20.619Z,21.80
2018-12-18T08:08:20.707Z,21.30
2018-12-18T08:09:20.797Z,19.90
2018-12-18T08:10:20.886Z,16.80
2018-12-18T08:11:20.973Z,18.60
2018-12-18T08:12:21.069Z,17.90
2018-12-18T08:13:21.160Z,18.20
2018-12-18T08:14:21.248Z,18.90
2018-12-18T08:15:21.334Z,20.50
2018-12-18T08:16:21.430Z,18.60
2018-12-18T08:17:21.517Z,17.60
2018-12-18T08:18:21.604Z,18.60
2018-12-18T08:19:21.697Z,20.40
2018-12-18T08:20:21.783Z,20.40
2018-12-18T08:21:21.875Z,21.00
2018-12-18T08:22:21.962Z,17.40
2018-12-18T08:23:22.121Z,18.60
2018-12-18T08:24:22.144Z,21.90
2018-12-18T08:25:22.234Z,17.70
2018-12-18T08:26:22.321Z,18.00
2018-12-18T08:27:22.411Z,16.60
2018-12-18T08:28:22.503Z,20.00
2018-12-18T08:29:22.594Z,20.70
2018-12-18T08:30:22.676Z,19.00
2018-12-18T08:31:22.774Z,20.50
2018-12-18T08:32:22.864Z,20.10
2018-12-18T08:33:22.957Z,20.60
2018-12-18T08:34:23.042Z,18.20
2018-12-18T08:35:23.134Z,19.40
2018-12-18T08:36:23.245Z,20.90
2018-12-18T08:37:23.339Z,17.70
2018-12-18T08:38:23.429Z,18.80
2018-12-18T08:39:23.516Z,21.10
2018-12-18T08:40:23.605Z,19.70
2018-12-18T08:41:23.698Z,23.60
2018-12-18T08:42:23.786Z,22.00
2018-12-18T08:43:23.875Z,22.70
2018-12-18T08:44:23.962Z,21.40
2018-12-18T08:45:24.059Z,21.30
2018-12-18T08:46:24.144Z,18.30
2018-12-18T08:47:24.234Z,18.20
2018-12-18T08:48:24.326Z,18.70
2018-12-18T08:49:24.419Z,19.00
2018-12-18T08:50:24.506Z,18.00
2018-12-18T08:51:24.599Z,18.60
2018-12-18T08:52:24.686Z,17.10
2018-12-18T08:53:24.778Z,18.90
2018-12-18T08:54:24.869Z,20.50
2018-12-18T08:55:24.956Z,23.20
2018-12-18T08:56:25.044Z,20.20
2018-12-18T08:57:25.139Z,22.90
2018-12-18T08:58:25.229Z,19.60
2018-12-18T08:59:25.315Z,20.20
2018-12-18T09:00:25.409Z,22.50
2018-12-18T09:01:25.495Z,19.50
2018-12-18T09:02:25.584Z,19.90
2018-12-18T09:03:25.674Z,18.10
2018-12-18T09:04:25.765Z,22.00
2018-12-18T09:05:25.854Z,19.60
2018-12-18T09:06:25.943Z,20.60
2018-12-18T09:07:26.033Z,24.30
2018-12-18T09:08:26.122Z,25.20
2018-12-18T09:09:26.209Z,20.40
2018-12-18T09:10:26.298Z,19.90
2018-12-18T09:11:26.387Z,20.50
2018-12-18T09:12:26.480Z,20.00
2018-12-18T09:13:26.570Z,20.10
2018-12-18T09:14:26.651Z,23.80
2018-12-18T09:15:26.747Z,21.60
2018-12-18T09:16:26.836Z,25.20
2018-12-18T09:17:26.926Z,23.50
2018-12-18T09:18:27.017Z,23.50
2018-12-18T09:19:27.108Z,24.70
2018-12-18T09:20:27.217Z,26.70
2018-12-18T09:21:27.308Z,27.70
2018-12-18T09:22:27.397Z,26.10
2018-12-18T09:23:27.488Z,23.80
2018-12-18T09:24:27.582Z,25.50
2018-12-18T09:25:27.668Z,19.30
2018-12-18T09:26:27.756Z,22.00
2018-12-18T09:27:27.855Z,21.90
2018-12-18T09:28:27.932Z,22.70
2018-12-18T09:29:28.038Z,22.30
2018-12-18T09:30:28.127Z,24.80
2018-12-18T09:31:28.216Z,25.80
2018-12-18T09:32:28.307Z,22.50
2018-12-18T09:33:28.382Z,21.30
2018-12-18T09:34:28.477Z,22.00
2018-12-18T09:35:28.567Z,18.70
2018-12-18T09:36:28.656Z,22.50
2018-12-18T09:37:28.745Z,23.30
2018-12-18T09:38:28.836Z,21.70
2018-12-18T09:39:28.927Z,22.40
2018-12-18T09:40:29.015Z,19.50
2018-12-18T09:41:29.106Z,22.60
2018-12-18T09:42:29.209Z,21.90
2018-12-18T09:43:29.289Z,23.70
2018-12-18T09:44:29.374Z,21.00
2018-12-18T09:45:29.463Z,23.20
2018-12-18T09:46:29.553Z,20.80
2018-12-18T09:47:29.644Z,20.30
2018-12-18T09:48:29.731Z,21.60
2018-12-18T09:49:29.822Z,20.30
2018-12-18T09:50:29.912Z,21.50
2018-12-18T09:51:30.001Z,22.50
2018-12-18T09:52:30.090Z,19.50
2018-12-18T09:53:30.183Z,22.90
2018-12-18T09:54:30.276Z,20.40
2018-12-18T09:55:30.361Z,18.20
2018-12-18T09:56:30.450Z,20.70
2018-12-18T09:57:30.542Z,22.80
2018-12-18T09:58:30.631Z,20.90
2018-12-18T09:59:30.721Z,19.40
2018-12-18T10:00:30.813Z,18.90
2018-12-18T10:01:30.903Z,19.10
2018-12-18T10:02:30.991Z,19.90
2018-12-18T10:03:33.678Z,18.90
2018-12-18T10:04:31.198Z,21.00
2018-12-18T10:05:31.286Z,20.50
2018-12-18T10:06:31.385Z,20.30
2018-12-18T10:07:31.469Z,19.90
2018-12-18T10:08:31.563Z,21.50
2018-12-18T10:09:31.653Z,22.20
2018-12-18T10:10:31.743Z,21.80
2018-12-18T10:11:31.834Z,20.30
2018-12-18T10:12:31.922Z,19.80
2018-12-18T10:13:32.010Z,21.10
2018-12-18T10:14:32.099Z,19.50
2018-12-18T10:15:32.188Z,20.10
2018-12-18T10:16:32.276Z,19.60
2018-12-18T10:17:32.353Z,21.60
2018-12-18T10:18:32.457Z,18.20
2018-12-18T10:19:32.550Z,20.00
2018-12-18T10:20:32.640Z,20.60
2018-12-18T10:21:32.730Z,20.00
2018-12-18T10:22:32.820Z,21.20
2018-12-18T10:23:32.925Z,20.40
2018-12-18T10:24:33.020Z,21.20
2018-12-18T10:25:33.112Z,21.50
2018-12-18T10:26:33.204Z,21.50
2018-12-18T10:27:33.293Z,21.20
2018-12-18T10:28:33.391Z,20.20
2018-12-18T10:29:33.476Z,18.10
2018-12-18T10:30:33.565Z,19.80
2018-12-18T10:31:33.648Z,19.20
2018-12-18T10:32:33.738Z,23.70
2018-12-18T10:33:33.829Z,18.10
2018-12-18T10:34:33.920Z,22.20
2018-12-18T10:35:36.598Z,21.40
2018-12-18T10:36:34.100Z,21.40
2018-12-18T10:37:34.190Z,16.90
2018-12-18T10:38:34.280Z,19.40
2018-12-18T10:39:34.371Z,20.70
2018-12-18T10:40:34.462Z,19.20
2018-12-18T10:41:34.554Z,19.30
2018-12-18T10:42:34.653Z,19.60
2018-12-18T10:43:34.747Z,17.80
2018-12-18T10:44:34.834Z,19.20
2018-12-18T10:45:34.924Z,21.00
2018-12-18T10:46:35.012Z,20.80
2018-12-18T10:47:35.103Z,19.70
2018-12-18T10:48:35.193Z,18.30
2018-12-18T10:49:35.282Z,19.20
2018-12-18T10:50:35.374Z,19.20
2018-12-18T10:51:35.460Z,19.10
2018-12-18T10:52:35.554Z,19.80
2018-12-18T10:53:35.646Z,20.50
2018-12-18T10:54:35.733Z,19.30
2018-12-18T10:55:35.825Z,19.30
2018-12-18T10:56:35.914Z,20.00
2018-12-18T10:57:36.009Z,22.20
2018-12-18T10:58:36.107Z,19.70
2018-12-18T10:59:36.203Z,18.60
2018-12-18T11:00:36.293Z,21.80
2018-12-18T11:01:36.395Z,19.80
2018-12-18T11:02:36.492Z,20.10
2018-12-18T11:03:36.582Z,22.30
2018-12-18T11:04:36.678Z,18.90
2018-12-18T11:05:36.771Z,20.60
2018-12-18T11:06:36.866Z,17.90
2018-12-18T11:07:36.957Z,19.90
2018-12-18T11:08:37.050Z,17.60
2018-12-18T11:09:37.143Z,20.50
2018-12-18T11:10:37.237Z,18.40
2018-12-18T11:11:37.325Z,17.90
2018-12-18T11:12:37.418Z,18.90
2018-12-18T11:13:37.507Z,20.10
2018-12-18T11:14:37.604Z,22.10
2018-12-18T11:15:37.695Z,21.00
2018-12-18T11:16:37.786Z,17.90
2018-12-18T11:17:37.874Z,19.90
2018-12-18T11:18:37.965Z,18.40
2018-12-18T11:19:38.058Z,22.80
2018-12-18T11:20:38.145Z,18.30
2018-12-18T11:21:38.234Z,16.80
2018-12-18T11:22:38.323Z,17.50
2018-12-18T11:23:38.417Z,16.50
2018-12-18T11:24:38.505Z,17.00
2018-12-18T11:25:38.595Z,16.70
2018-12-18T11:26:38.686Z,17.10
2018-12-18T11:27:38.778Z,17.70
2018-12-18T11:28:38.872Z,19.10
2018-12-18T11:29:38.959Z,17.80
2018-12-18T11:30:39.050Z,19.00
2018-12-18T11:31:39.142Z,18.00
2018-12-18T11:32:39.235Z,18.30
2018-12-18T11:33:39.335Z,20.20
2018-12-18T11:34:39.428Z,19.30
2018-12-18T11:35:39.515Z,15.30
2018-12-18T11:36:39.605Z,17.10
2018-12-18T11:37:39.694Z,15.50
2018-12-18T11:38:39.781Z,16.60
2018-12-18T11:39:39.870Z,16.00
2018-12-18T11:40:39.961Z,14.80
2018-12-18T11:41:40.053Z,11.60
2018-12-18T11:42:40.139Z,14.50
2018-12-18T11:43:40.233Z,14.60
2018-12-18T11:44:41.417Z,14.30
2018-12-18T11:45:40.413Z,13.30
2018-12-18T11:46:40.497Z,12.70
2018-12-18T11:47:40.595Z,12.10
2018-12-18T11:48:40.683Z,17.30
2018-12-18T11:49:40.772Z,13.80
2018-12-18T11:50:40.864Z,17.00
2018-12-18T11:51:40.954Z,15.70
2018-12-18T11:52:41.052Z,15.00
2018-12-18T11:53:41.135Z,12.70
2018-12-18T11:54:41.221Z,13.40
2018-12-18T11:55:41.314Z,13.00
2018-12-18T11:56:41.416Z,13.40
2018-12-18T11:57:41.491Z,16.30
2018-12-18T11:58:41.629Z,9.60
2018-12-18T11:59:41.684Z,11.90
2018-12-18T12:00:41.777Z,11.30
2018-12-18T12:01:41.873Z,9.50
2018-12-18T12:02:42.975Z,10.00
2018-12-18T12:03:42.066Z,9.10
2018-12-18T12:04:42.156Z,9.20
2018-12-18T12:05:42.246Z,8.90
2018-12-18T12:06:42.334Z,11.70
2018-12-18T12:07:42.431Z,10.70
2018-12-18T12:08:42.525Z,10.40
2018-12-18T12:09:42.620Z,8.80
2018-12-18T12:10:42.707Z,11.10
2018-12-18T12:11:42.816Z,11.60
2018-12-18T12:12:42.913Z,11.90
2018-12-18T12:13:43.004Z,13.40
2018-12-18T12:14:43.100Z,10.40
2018-12-18T12:15:43.211Z,10.90
2018-12-18T12:16:43.304Z,9.90
2018-12-18T12:17:43.400Z,11.40
2018-12-18T12:18:43.495Z,9.70
2018-12-18T12:19:43.586Z,10.40
2018-12-18T12:20:43.681Z,9.90
2018-12-18T12:21:44.336Z,10.90
2018-12-18T12:22:43.856Z,9.60
2018-12-18T12:23:43.949Z,11.40
2018-12-18T12:24:44.044Z,10.20
2018-12-18T12:25:44.134Z,8.70
2018-12-18T12:26:44.230Z,10.20
2018-12-18T12:27:44.324Z,10.70
2018-12-18T12:28:44.416Z,9.90
2018-12-18T12:29:44.511Z,10.50
2018-12-18T12:30:44.603Z,13.30
2018-12-18T12:31:44.697Z,10.50
2018-12-18T12:32:44.857Z,9.40
2018-12-18T12:33:44.883Z,11.70
2018-12-18T12:34:44.971Z,9.50
2018-12-18T12:35:45.064Z,10.40
2018-12-18T12:36:45.157Z,10.40
2018-12-18T12:37:45.256Z,10.20
2018-12-18T12:38:45.354Z,9.40
2018-12-18T12:39:45.444Z,10.80
2018-12-18T12:40:45.538Z,9.20
2018-12-18T12:41:45.629Z,10.00
2018-12-18T12:42:45.726Z,10.90
2018-12-18T12:43:45.821Z,12.40
2018-12-18T12:44:45.907Z,8.90
2018-12-18T12:45:46.008Z,13.90
2018-12-18T12:46:46.101Z,10.40
2018-12-18T12:47:46.197Z,15.90
2018-12-18T12:48:46.308Z,9.80
2018-12-18T12:49:46.396Z,10.30
2018-12-18T12:50:46.491Z,9.30
2018-12-18T12:51:46.584Z,10.30
2018-12-18T12:52:46.675Z,10.60
2018-12-18T12:53:46.774Z,7.70
2018-12-18T12:54:46.864Z,10.50